Time;durP1;ratioP1;P1;durP2;ratioP2;P2;SDS_P1;SDS_P2;PMS_P1;PMS_P2;Temp;Humidity;BMP_temperature;BMP_pressure;BME280_temperature;BME280_humidity;BME280_pressure;Samples;Min_cycle;Max_cycle;Signal;HPM_P1;HPM_P2
2022/05/10 00:01:35;;;;;;;17.88;5.20;;;13.80;99.90;;;;;;4959941;28;20066;-80
2022/05/10 00:04:03;;;;;;;10.10;3.30;;;13.80;99.90;;;;;;4965248;28;20062;-79
2022/05/10 00:06:37;;;;;;;10.45;3.33;;;13.70;99.90;;;;;;4970761;28;20066;-81
2022/05/10 00:09:04;;;;;;;13.18;3.53;;;13.60;99.90;;;;;;4970469;28;20501;-81
2022/05/10 00:11:30;;;;;;;8.18;3.53;;;13.60;99.90;;;;;;4962415;28;20055;-81
2022/05/10 00:13:55;;;;;;;9.70;3.55;;;13.60;99.90;;;;;;4963139;28;20046;-81
2022/05/10 00:16:21;;;;;;;8.02;3.33;;;13.50;99.90;;;;;;4962787;28;20512;-79
2022/05/10 00:18:47;;;;;;;13.70;3.63;;;13.50;99.90;;;;;;4960629;28;20035;-79
2022/05/10 00:21:17;;;;;;;6.10;3.13;;;13.40;99.90;;;;;;4961848;28;20045;-77
2022/05/10 00:23:43;;;;;;;8.10;3.17;;;13.40;99.90;;;;;;4961115;28;20059;-81
2022/05/10 00:26:08;;;;;;;8.38;4.18;;;13.40;99.90;;;;;;4966444;28;20034;-79
2022/05/10 00:28:34;;;;;;;10.15;3.10;;;13.40;99.90;;;;;;4949287;28;20043;-79
2022/05/10 00:30:59;;;;;;;12.65;3.42;;;13.20;99.90;;;;;;4965866;28;20043;-79
2022/05/10 00:33:28;;;;;;;20.02;4.10;;;13.30;99.90;;;;;;4962658;28;21922;-80
2022/05/10 00:35:55;;;;;;;16.25;5.32;;;13.20;99.90;;;;;;4966574;28;20498;-81
2022/05/10 00:38:24;;;;;;;18.70;4.00;;;13.20;99.90;;;;;;4965206;28;20050;-80
2022/05/10 00:40:50;;;;;;;10.73;5.20;;;13.20;99.90;;;;;;4966416;28;20434;-78
2022/05/10 00:43:35;;;;;;;13.27;5.00;;;13.20;99.90;;;;;;4962441;28;20053;-76
2022/05/10 00:46:11;;;;;;;12.43;3.15;;;13.30;99.90;;;;;;4967281;28;20058;-81
2022/05/10 00:49:00;;;;;;;13.88;5.03;;;13.20;99.90;;;;;;4968312;28;20045;-80
2022/05/10 00:51:47;;;;;;;15.02;5.07;;;13.20;99.90;;;;;;4968576;28;20540;-80
2022/05/10 00:54:27;;;;;;;14.65;4.13;;;13.10;99.90;;;;;;4962268;28;20042;-81
2022/05/10 00:57:05;;;;;;;9.77;3.45;;;13.10;99.90;;;;;;4967430;28;20045;-79
2022/05/10 00:59:40;;;;;;;14.48;3.63;;;13.10;99.90;;;;;;4952872;28;20062;-79
2022/05/10 01:02:15;;;;;;;14.18;4.75;;;13.10;99.90;;;;;;4963295;28;20077;-81
2022/05/10 01:04:49;;;;;;;15.80;5.07;;;13.10;99.90;;;;;;4965395;28;20039;-79
2022/05/10 01:07:23;;;;;;;9.77;3.33;;;13.10;99.90;;;;;;4965675;28;20050;-78
2022/05/10 01:09:55;;;;;;;12.15;3.55;;;13.10;99.90;;;;;;4961878;28;20080;-80
2022/05/10 01:12:50;;;;;;;7.38;3.03;;;13.00;99.90;;;;;;4963380;28;20089;-81
2022/05/10 01:15:23;;;;;;;9.93;3.67;;;12.90;99.90;;;;;;4981854;28;20058;-80
2022/05/10 01:17:57;;;;;;;12.25;4.18;;;13.00;99.90;;;;;;4964809;28;20105;-76
2022/05/10 01:20:32;;;;;;;9.57;3.33;;;13.00;99.90;;;;;;4960982;28;20051;-81
2022/05/10 01:23:25;;;;;;;9.55;3.65;;;12.90;99.90;;;;;;4965009;28;20039;-79
2022/05/10 01:26:04;;;;;;;11.38;4.53;;;12.90;99.90;;;;;;4982340;28;20055;-80
2022/05/10 01:28:35;;;;;;;13.00;4.38;;;13.00;99.90;;;;;;4962134;28;20125;-77
2022/05/10 01:31:15;;;;;;;8.63;4.53;;;12.90;99.90;;;;;;4959474;28;20042;-81
2022/05/10 01:33:45;;;;;;;5.20;4.05;;;12.90;99.90;;;;;;4969477;28;20055;-82
2022/05/10 01:36:38;;;;;;;8.80;4.10;;;12.90;99.90;;;;;;4964189;28;20097;-80
2022/05/10 01:39:11;;;;;;;11.52;4.57;;;12.90;99.90;;;;;;4959877;28;20137;-79
2022/05/10 01:42:00;;;;;;;9.55;3.67;;;12.90;99.90;;;;;;4967247;28;20054;-77
2022/05/10 01:44:49;;;;;;;12.00;4.72;;;12.90;99.90;;;;;;4948851;28;20057;-80
2022/05/10 01:47:20;;;;;;;17.33;4.68;;;12.90;99.90;;;;;;4967387;28;20135;-81
2022/05/10 01:50:02;;;;;;;10.13;4.60;;;12.70;99.90;;;;;;4964509;28;20043;-78
2022/05/10 01:53:01;;;;;;;8.90;4.55;;;12.70;99.90;;;;;;4976189;28;20491;-80
2022/05/10 01:55:32;;;;;;;15.60;4.15;;;12.80;99.90;;;;;;4964229;28;20042;-79
2022/05/10 01:58:11;;;;;;;11.10;4.47;;;12.70;99.90;;;;;;4979053;28;20043;-81
2022/05/10 02:00:39;;;;;;;13.02;5.00;;;12.60;99.90;;;;;;4978008;28;20093;-79
2022/05/10 02:03:20;;;;;;;9.40;4.38;;;12.60;99.90;;;;;;4960737;28;20332;-80
2022/05/10 02:06:11;;;;;;;8.77;3.65;;;12.60;99.90;;;;;;4963221;28;20390;-80
2022/05/10 02:09:29;;;;;;;5.68;4.00;;;12.60;99.90;;;;;;4966948;28;20088;-80
2022/05/10 02:11:58;;;;;;;12.60;4.68;;;12.60;99.90;;;;;;4905258;29;20052;-81
2022/05/10 02:14:31;;;;;;;10.25;4.47;;;12.70;99.90;;;;;;4951780;28;20051;-79
2022/05/10 02:17:10;;;;;;;14.30;4.93;;;12.70;99.90;;;;;;4966866;28;20057;-81
2022/05/10 02:19:55;;;;;;;9.98;5.45;;;12.70;99.90;;;;;;4967002;28;20050;-79
2022/05/10 02:22:31;;;;;;;11.65;5.07;;;12.90;99.90;;;;;;4964545;28;20042;-79
2022/05/10 02:25:12;;;;;;;12.63;5.38;;;12.70;99.90;;;;;;4963849;28;20049;-80
2022/05/10 02:27:42;;;;;;;8.23;4.90;;;12.60;99.90;;;;;;4983919;28;20046;-80
2022/05/10 02:30:24;;;;;;;13.88;4.72;;;12.70;99.90;;;;;;4960586;28;20732;-75
2022/05/10 02:33:06;;;;;;;15.52;5.72;;;12.70;99.90;;;;;;4964724;28;20066;-81
2022/05/10 02:35:55;;;;;;;11.07;5.75;;;12.80;99.90;;;;;;4959345;28;20050;-79
2022/05/10 02:38:40;;;;;;;9.95;5.28;;;13.00;99.90;;;;;;4965811;28;20057;-77
2022/05/10 02:41:26;;;;;;;11.52;4.93;;;13.10;99.90;;;;;;4959571;28;20076;-81
2022/05/10 02:43:58;;;;;;;12.75;5.20;;;13.00;99.90;;;;;;4961414;28;20083;-81
2022/05/10 02:46:24;;;;;;;13.30;5.90;;;13.00;99.90;;;;;;4959833;28;20039;-80
2022/05/10 02:48:50;;;;;;;15.27;5.13;;;13.00;99.90;;;;;;4981983;28;20047;-76
2022/05/10 02:51:17;;;;;;;16.15;5.82;;;13.00;99.90;;;;;;4964950;28;20516;-81
2022/05/10 02:53:42;;;;;;;18.77;6.00;;;12.90;99.90;;;;;;4962694;28;20089;-80
2022/05/10 02:56:12;;;;;;;9.32;5.05;;;13.10;99.90;;;;;;4962546;28;20047;-77
2022/05/10 02:58:49;;;;;;;17.25;5.30;;;13.10;99.90;;;;;;4964949;28;20524;-81
2022/05/10 03:01:18;;;;;;;12.15;5.72;;;13.10;99.90;;;;;;4961651;28;20046;-80
2022/05/10 03:03:45;;;;;;;13.10;5.35;;;13.00;99.90;;;;;;4961535;28;20074;-80
2022/05/10 03:06:18;;;;;;;17.10;7.47;;;13.00;99.90;;;;;;4949910;28;20043;-77
2022/05/10 03:08:46;;;;;;;14.60;6.03;;;13.10;99.90;;;;;;4965873;28;20054;-80
2022/05/10 03:11:12;;;;;;;17.20;6.70;;;13.20;99.90;;;;;;4984453;28;20051;-81
2022/05/10 03:13:38;;;;;;;13.18;5.38;;;13.10;99.90;;;;;;4960781;28;20065;-81
2022/05/10 03:16:04;;;;;;;8.50;5.05;;;13.10;99.90;;;;;;4960962;28;20047;-80
2022/05/10 03:18:30;;;;;;;16.17;6.93;;;13.00;99.90;;;;;;4952066;28;20050;-80
2022/05/10 03:20:55;;;;;;;14.82;6.63;;;13.00;99.90;;;;;;4957935;28;20051;-79
2022/05/10 03:23:21;;;;;;;9.40;5.80;;;13.00;99.90;;;;;;4964236;28;20038;-79
2022/05/10 03:25:47;;;;;;;12.45;5.00;;;13.00;99.90;;;;;;4980892;28;20050;-82
2022/05/10 03:28:14;;;;;;;14.75;7.30;;;13.00;99.90;;;;;;4962878;28;20051;-80
2022/05/10 03:30:40;;;;;;;17.70;5.80;;;13.00;99.90;;;;;;4959203;28;20043;-80
2022/05/10 03:33:06;;;;;;;8.88;5.88;;;13.10;99.90;;;;;;4961497;28;20074;-81
2022/05/10 03:35:31;;;;;;;11.85;5.45;;;13.00;99.90;;;;;;4961604;28;20074;-80
2022/05/10 03:37:57;;;;;;;16.80;6.40;;;13.00;99.90;;;;;;4959577;28;20434;-77
2022/05/10 03:40:23;;;;;;;9.85;5.45;;;12.90;99.90;;;;;;4967125;28;20050;-78
2022/05/10 03:42:51;;;;;;;10.90;5.80;;;13.00;99.90;;;;;;4960077;28;20047;-79
2022/05/10 03:45:18;;;;;;;8.07;6.05;;;12.90;99.90;;;;;;4966964;28;20502;-81
2022/05/10 03:47:45;;;;;;;20.73;6.30;;;12.90;99.90;;;;;;4971291;28;20063;-81
2022/05/10 03:50:12;;;;;;;11.80;5.68;;;12.90;99.90;;;;;;4983554;28;20054;-81
2022/05/10 03:52:40;;;;;;;15.63;5.38;;;12.90;99.90;;;;;;4970101;28;20050;-80
2022/05/10 03:55:08;;;;;;;13.10;6.93;;;12.90;99.90;;;;;;4968206;28;20082;-81
2022/05/10 03:57:33;;;;;;;12.60;7.05;;;12.90;99.90;;;;;;4966510;28;20114;-77
2022/05/10 03:59:59;;;;;;;18.35;6.47;;;12.90;99.90;;;;;;4966592;28;20172;-78
2022/05/10 04:02:25;;;;;;;10.05;5.95;;;12.90;99.90;;;;;;4960217;28;20070;-81
2022/05/10 04:04:50;;;;;;;13.77;6.30;;;12.90;99.90;;;;;;4969217;28;20045;-81
2022/05/10 04:07:16;;;;;;;12.80;5.68;;;12.90;99.90;;;;;;4953971;28;20085;-79
2022/05/10 04:09:41;;;;;;;13.45;7.20;;;12.90;99.90;;;;;;4966320;28;20041;-81
2022/05/10 04:12:07;;;;;;;12.63;8.05;;;12.90;99.90;;;;;;4964114;28;20075;-79
2022/05/10 04:14:33;;;;;;;12.02;7.63;;;13.00;99.90;;;;;;4983781;28;20241;-79
2022/05/10 04:16:59;;;;;;;15.98;8.25;;;12.90;99.90;;;;;;4965508;28;20080;-81
2022/05/10 04:19:24;;;;;;;15.25;8.50;;;12.90;99.90;;;;;;4964548;28;20050;-79
2022/05/10 04:21:50;;;;;;;13.00;7.65;;;13.10;99.90;;;;;;4970515;28;20478;-79
2022/05/10 04:24:16;;;;;;;21.45;8.13;;;13.10;99.90;;;;;;4971218;28;20549;-82
2022/05/10 04:26:43;;;;;;;16.67;9.18;;;13.10;99.90;;;;;;4973233;28;20049;-81
2022/05/10 04:29:08;;;;;;;12.90;7.90;;;13.10;99.90;;;;;;4963331;28;20536;-80
2022/05/10 04:31:34;;;;;;;13.05;7.82;;;13.10;99.90;;;;;;4964266;28;20086;-77
2022/05/10 04:33:59;;;;;;;14.20;7.88;;;13.00;99.90;;;;;;4963417;28;20747;-80
2022/05/10 04:36:25;;;;;;;17.80;7.78;;;13.10;99.90;;;;;;4965240;28;20058;-78
2022/05/10 04:38:51;;;;;;;15.73;8.30;;;13.20;99.90;;;;;;4964137;28;20051;-82
2022/05/10 04:41:25;;;;;;;13.07;8.07;;;13.20;99.90;;;;;;4964378;28;20433;-78
2022/05/10 04:44:01;;;;;;;18.80;9.13;;;13.30;99.90;;;;;;4980010;28;20047;-80
2022/05/10 04:46:29;;;;;;;13.07;9.02;;;13.40;99.90;;;;;;4963450;28;20072;-78
2022/05/10 04:48:55;;;;;;;16.45;8.52;;;13.50;99.90;;;;;;4957328;28;20046;-82
2022/05/10 04:51:20;;;;;;;12.07;8.65;;;13.50;99.90;;;;;;4960726;28;20102;-80
2022/05/10 04:53:46;;;;;;;20.77;8.77;;;13.50;99.90;;;;;;4963140;28;20046;-82
2022/05/10 04:56:11;;;;;;;18.95;8.80;;;13.40;99.90;;;;;;4960576;28;20053;-81
2022/05/10 04:58:54;;;;;;;30.77;8.48;;;13.50;99.90;;;;;;5067496;27;20506;-65
2022/05/10 05:01:22;;;;;;;21.83;9.50;;;13.60;99.90;;;;;;5056029;28;20045;-65
2022/05/10 05:03:49;;;;;;;22.98;10.15;;;13.60;99.90;;;;;;5067847;28;20047;-65
2022/05/10 05:06:17;;;;;;;14.57;8.68;;;13.70;99.90;;;;;;5060956;28;20055;-65
2022/05/10 05:08:43;;;;;;;19.00;9.35;;;13.70;99.90;;;;;;5067275;28;20051;-65
2022/05/10 05:11:09;;;;;;;19.85;9.18;;;13.70;99.90;;;;;;5101875;28;20036;-65
2022/05/10 05:13:35;;;;;;;21.05;9.32;;;13.70;99.90;;;;;;5059448;28;20037;-65
2022/05/10 05:16:01;;;;;;;14.07;9.35;;;13.80;99.90;;;;;;5101715;28;20040;-65
2022/05/10 05:18:27;;;;;;;15.55;9.05;;;13.80;99.90;;;;;;5067369;28;20044;-65
2022/05/10 05:20:53;;;;;;;13.88;8.90;;;13.90;99.90;;;;;;5062504;28;20609;-65
2022/05/10 05:23:21;;;;;;;16.25;8.98;;;14.00;99.90;;;;;;5069865;28;20056;-65
2022/05/10 05:25:47;;;;;;;12.90;8.18;;;14.10;99.90;;;;;;5067666;28;20045;-65
2022/05/10 05:28:14;;;;;;;17.48;9.40;;;14.20;99.90;;;;;;5065642;28;20413;-65
2022/05/10 05:30:42;;;;;;;20.10;8.98;;;14.20;99.90;;;;;;5068583;28;20060;-65
2022/05/10 05:33:07;;;;;;;17.63;9.18;;;14.30;99.90;;;;;;5099402;28;20032;-65
2022/05/10 05:35:34;;;;;;;13.88;8.45;;;14.30;99.90;;;;;;5068617;28;20114;-65
2022/05/10 05:37:59;;;;;;;15.07;9.55;;;14.40;99.90;;;;;;5070041;28;20048;-65
2022/05/10 05:40:25;;;;;;;16.52;8.57;;;14.50;99.90;;;;;;5068015;28;20033;-65
2022/05/10 05:42:52;;;;;;;16.52;7.82;;;14.60;99.90;;;;;;5062503;28;20068;-65
2022/05/10 05:45:20;;;;;;;14.40;8.98;;;14.70;99.90;;;;;;5072643;28;20043;-65
2022/05/10 05:47:46;;;;;;;15.68;8.40;;;14.70;99.90;;;;;;5060538;28;20066;-65
2022/05/10 05:50:14;;;;;;;16.27;7.88;;;14.70;99.90;;;;;;5099067;28;20076;-65
2022/05/10 05:52:40;;;;;;;13.02;8.52;;;14.90;99.90;;;;;;5066883;28;20071;-65
2022/05/10 05:55:08;;;;;;;11.93;8.05;;;15.10;99.90;;;;;;5061576;28;20094;-65
2022/05/10 05:57:34;;;;;;;18.63;8.63;;;15.10;99.90;;;;;;5056485;28;20072;-65
2022/05/10 05:59:59;;;;;;;15.35;8.10;;;15.20;99.90;;;;;;5049203;28;20028;-65
2022/05/10 06:02:26;;;;;;;18.30;9.18;;;15.40;99.90;;;;;;5061200;28;20106;-65
2022/05/10 06:04:53;;;;;;;19.80;7.78;;;15.40;99.90;;;;;;5060200;28;20036;-65
2022/05/10 06:07:19;;;;;;;13.13;7.75;;;15.60;99.90;;;;;;5095242;28;20170;-65
2022/05/10 06:09:46;;;;;;;12.18;7.70;;;15.60;99.90;;;;;;5045070;28;20037;-65
2022/05/10 06:12:14;;;;;;;12.43;7.28;;;15.70;99.90;;;;;;5049382;28;20036;-65
2022/05/10 06:14:40;;;;;;;13.80;8.85;;;15.90;99.90;;;;;;5053775;28;20044;-66
2022/05/10 06:17:07;;;;;;;11.20;7.60;;;16.00;99.90;;;;;;5050605;28;20037;-65
2022/05/10 06:19:36;;;;;;;9.95;7.32;;;16.10;99.90;;;;;;5048471;28;20518;-65
2022/05/10 06:22:02;;;;;;;10.45;7.13;;;16.30;99.90;;;;;;5048355;28;20052;-65
2022/05/10 06:24:27;;;;;;;14.25;8.35;;;16.50;99.90;;;;;;5055150;28;20098;-65
2022/05/10 06:26:53;;;;;;;9.77;7.57;;;16.70;99.90;;;;;;5048538;28;22227;-66
2022/05/10 06:29:19;;;;;;;7.68;6.53;;;16.90;99.90;;;;;;5056756;28;20049;-66
2022/05/10 06:31:46;;;;;;;8.10;6.65;;;17.20;99.90;;;;;;5044369;28;20119;-66
2022/05/10 06:34:12;;;;;;;10.93;6.80;;;17.40;99.90;;;;;;5043695;28;20049;-66
2022/05/10 06:36:39;;;;;;;11.02;7.63;;;17.60;99.90;;;;;;5044106;28;20535;-66
2022/05/10 06:39:05;;;;;;;9.82;7.07;;;17.80;99.90;;;;;;5040947;28;20079;-66
2022/05/10 06:41:32;;;;;;;8.57;6.88;;;17.90;99.90;;;;;;5045476;28;20569;-66
2022/05/10 06:43:58;;;;;;;11.52;7.03;;;18.10;99.90;;;;;;5044348;28;20029;-66
2022/05/10 06:46:24;;;;;;;9.50;6.28;;;18.10;99.90;;;;;;5043900;28;20033;-66
2022/05/10 06:48:50;;;;;;;12.07;6.15;;;18.30;99.90;;;;;;5044788;28;20051;-66
2022/05/10 06:51:18;;;;;;;7.60;6.13;;;18.60;99.90;;;;;;5049204;28;20041;-66
2022/05/10 06:53:45;;;;;;;7.93;5.28;;;18.60;99.90;;;;;;5028308;28;20045;-66
2022/05/10 06:56:11;;;;;;;9.18;6.28;;;18.70;99.90;;;;;;5049121;28;20171;-66
2022/05/10 06:58:37;;;;;;;11.82;5.47;;;18.90;99.90;;;;;;5039105;28;20041;-66
2022/05/10 07:01:05;;;;;;;10.48;6.20;;;19.10;99.90;;;;;;5040746;28;20038;-66
2022/05/10 07:03:33;;;;;;;8.23;5.55;;;19.30;99.90;;;;;;5039498;28;20075;-66
2022/05/10 07:06:02;;;;;;;11.18;5.53;;;19.60;99.90;;;;;;5043690;28;22212;-66
2022/05/10 07:08:28;;;;;;;8.90;4.97;;;19.90;98.90;;;;;;5074048;28;20071;-66
2022/05/10 07:10:54;;;;;;;9.68;5.40;;;20.10;97.20;;;;;;5074048;28;20053;-66
2022/05/10 07:13:23;;;;;;;10.70;5.30;;;20.30;97.80;;;;;;5042474;28;20041;-66
2022/05/10 07:15:49;;;;;;;13.48;6.05;;;20.50;96.80;;;;;;5045068;28;20029;-66
2022/05/10 07:18:16;;;;;;;8.65;4.75;;;20.70;95.90;;;;;;5039443;28;20048;-67
2022/05/10 07:20:43;;;;;;;11.82;4.70;;;20.80;95.20;;;;;;5073836;28;20033;-66
2022/05/10 07:23:09;;;;;;;13.05;4.90;;;21.00;95.20;;;;;;5042573;28;20044;-66
2022/05/10 07:25:35;;;;;;;12.23;4.97;;;21.10;94.50;;;;;;5044304;28;20121;-66
2022/05/10 07:28:00;;;;;;;8.00;3.60;;;21.20;93.80;;;;;;5071602;28;20049;-66
2022/05/10 07:30:27;;;;;;;10.30;4.60;;;21.40;93.10;;;;;;5042694;28;20079;-66
2022/05/10 07:32:53;;;;;;;11.50;5.15;;;21.40;93.20;;;;;;5017461;28;20054;-66
2022/05/10 07:36:23;;;;;;;18.42;4.78;;;21.60;92.20;;;;;;5040982;28;20040;-66
2022/05/10 07:38:12;;;;;;;11.15;4.50;;;21.60;91.60;;;;;;5041622;28;20134;-66
2022/05/10 07:40:38;;;;;;;25.77;5.63;;;21.70;91.00;;;;;;5057698;28;20041;-66
2022/05/10 07:43:06;;;;;;;20.25;5.40;;;21.80;90.90;;;;;;5036638;28;20072;-66
2022/05/10 07:45:33;;;;;;;11.65;4.75;;;21.90;90.50;;;;;;5055298;28;20049;-66
2022/05/10 07:47:58;;;;;;;16.00;4.85;;;21.90;90.50;;;;;;5039198;28;20043;-66
2022/05/10 07:50:24;;;;;;;8.60;4.72;;;22.00;89.40;;;;;;5039494;28;20033;-67
2022/05/10 07:52:50;;;;;;;27.20;6.30;;;22.00;90.00;;;;;;5041523;28;20659;-66
2022/05/10 07:55:16;;;;;;;18.60;6.28;;;22.10;89.90;;;;;;5040494;28;20115;-66
2022/05/10 07:57:43;;;;;;;17.33;5.15;;;22.30;90.70;;;;;;5037449;28;20041;-67
2022/05/10 08:00:13;;;;;;;14.38;5.53;;;22.50;89.40;;;;;;5037108;28;20746;-66
2022/05/10 08:02:42;;;;;;;13.43;4.78;;;22.60;87.40;;;;;;5040419;28;20433;-67
2022/05/10 08:05:16;;;;;;;9.98;4.50;;;22.70;86.30;;;;;;5040393;28;20040;-67
2022/05/10 08:07:41;;;;;;;10.52;4.90;;;22.80;85.40;;;;;;5036353;28;20052;-67
2022/05/10 08:10:07;;;;;;;8.93;5.28;;;22.70;86.00;;;;;;5040810;28;20033;-66
2022/05/10 08:12:33;;;;;;;30.42;7.15;;;22.70;86.10;;;;;;5042570;28;20040;-66
2022/05/10 08:14:59;;;;;;;44.80;7.28;;;22.80;85.80;;;;;;5042763;28;20041;-66
2022/05/10 08:17:24;;;;;;;9.63;5.18;;;22.80;84.60;;;;;;5042542;28;20048;-66
2022/05/10 08:19:53;;;;;;;22.73;6.00;;;23.00;87.40;;;;;;5042525;28;20044;-66
2022/05/10 08:22:19;;;;;;;24.63;5.57;;;23.10;84.50;;;;;;5044685;28;20091;-67
2022/05/10 08:24:45;;;;;;;30.83;5.50;;;23.00;83.30;;;;;;5038026;28;20041;-66
2022/05/10 08:27:10;;;;;;;16.73;5.45;;;23.00;81.40;;;;;;5039099;28;20075;-67
2022/05/10 08:29:37;;;;;;;28.55;6.60;;;22.90;81.60;;;;;;5037275;28;20063;-67
2022/05/10 08:32:03;;;;;;;7.55;4.18;;;22.70;82.30;;;;;;5040453;28;20055;-66
2022/05/10 08:34:29;;;;;;;13.02;4.78;;;22.70;82.30;;;;;;5070855;28;20695;-66
2022/05/10 08:36:56;;;;;;;11.25;4.75;;;22.60;82.80;;;;;;5039404;28;20069;-66
2022/05/10 08:39:22;;;;;;;7.25;3.95;;;22.60;83.10;;;;;;5071640;28;20072;-67
2022/05/10 08:41:57;;;;;;;17.65;5.05;;;22.60;82.60;;;;;;5069999;28;20044;-66
2022/05/10 08:44:26;;;;;;;9.05;4.53;;;22.60;83.70;;;;;;5068281;28;20040;-67
2022/05/10 08:47:01;;;;;;;29.25;5.63;;;22.60;82.90;;;;;;5036389;28;20150;-67
2022/05/10 08:49:29;;;;;;;16.90;4.90;;;22.50;81.80;;;;;;5034698;28;20047;-66
2022/05/10 08:51:55;;;;;;;17.65;5.40;;;22.50;80.60;;;;;;5037422;28;20067;-66
2022/05/10 08:54:21;;;;;;;11.40;4.70;;;22.40;82.20;;;;;;5037822;28;20543;-67
2022/05/10 08:56:55;;;;;;;37.30;7.03;;;22.40;81.90;;;;;;5034908;28;20136;-67
2022/05/10 08:59:59;;;;;;;9.02;4.63;;;22.20;81.90;;;;;;5036677;28;20077;-67
2022/05/10 09:02:40;;;;;;;10.27;5.05;;;22.30;82.60;;;;;;5037285;28;20037;-66
2022/05/10 09:05:35;;;;;;;15.93;5.30;;;22.20;83.40;;;;;;5037738;28;20045;-67
2022/05/10 09:08:13;;;;;;;53.97;7.05;;;22.20;82.90;;;;;;5026000;28;20048;-67
2022/05/10 09:10:46;;;;;;;14.98;5.65;;;22.20;83.20;;;;;;5021118;28;20051;-67
2022/05/10 09:13:17;;;;;;;14.98;5.90;;;22.20;83.40;;;;;;5037319;28;20053;-66
2022/05/10 09:15:54;;;;;;;15.73;4.97;;;22.10;84.00;;;;;;5037729;28;20048;-66
2022/05/10 09:18:26;;;;;;;21.65;5.57;;;22.10;84.90;;;;;;5038685;28;20044;-67
2022/05/10 09:21:02;;;;;;;23.40;6.47;;;22.10;85.30;;;;;;5039522;28;20037;-67
2022/05/10 09:23:50;;;;;;;12.98;5.85;;;22.20;84.10;;;;;;5057859;28;20037;-66
2022/05/10 09:26:16;;;;;;;14.15;6.00;;;22.20;84.20;;;;;;5043244;28;20094;-66
2022/05/10 09:29:12;;;;;;;9.23;5.88;;;22.20;85.00;;;;;;5038030;28;20636;-66
2022/05/10 09:37:34;;;;;;;18.53;6.67;;;22.30;86.00;;;;;;5039862;28;20581;-67
2022/05/10 09:40:25;;;;;;;6.28;4.88;;;22.40;86.40;;;;;;5069564;28;20041;-67
2022/05/10 09:42:53;;;;;;;14.63;5.50;;;22.50;86.90;;;;;;5039485;28;20037;-67
2022/05/10 09:45:26;;;;;;;17.27;5.28;;;22.60;86.50;;;;;;5072092;28;20146;-67
2022/05/10 09:48:07;;;;;;;11.25;6.00;;;22.80;87.60;;;;;;5042336;28;20036;-67
2022/05/10 09:50:37;;;;;;;27.00;6.93;;;22.90;85.60;;;;;;5040899;28;20103;-67
2022/05/10 09:53:14;;;;;;;34.55;6.47;;;22.90;85.20;;;;;;5043235;28;20733;-67
2022/05/10 09:55:52;;;;;;;30.48;7.65;;;23.00;85.30;;;;;;5045479;28;20052;-67
2022/05/10 09:58:31;;;;;;;24.63;6.72;;;23.10;84.90;;;;;;5044632;28;20036;-67
2022/05/10 10:00:59;;;;;;;17.08;5.50;;;23.10;84.70;;;;;;5045071;28;20115;-67
2022/05/10 10:03:32;;;;;;;29.50;5.15;;;23.20;82.50;;;;;;5073225;28;20041;-67
2022/05/10 10:06:18;;;;;;;49.50;7.93;;;23.30;83.30;;;;;;5074015;28;20437;-67
2022/05/10 10:08:51;;;;;;;34.60;4.90;;;23.40;83.70;;;;;;5041487;28;21327;-66
2022/05/10 10:11:29;;;;;;;69.03;8.32;;;23.60;82.00;;;;;;5071651;28;20063;-66
2022/05/10 10:13:59;;;;;;;49.53;6.78;;;23.70;83.10;;;;;;5047136;28;20036;-66
2022/05/10 10:16:32;;;;;;;24.33;5.15;;;23.70;81.50;;;;;;5041408;28;20075;-66
2022/05/10 10:19:22;;;;;;;82.30;10.82;;;23.90;82.40;;;;;;5044561;28;20091;-67
2022/05/10 10:21:54;;;;;;;48.58;7.97;;;24.00;81.00;;;;;;5047423;28;20049;-67
2022/05/10 10:24:24;;;;;;;28.63;6.53;;;24.10;80.00;;;;;;5053534;28;20124;-67
2022/05/10 10:26:56;;;;;;;47.33;6.95;;;24.10;79.90;;;;;;5048180;28;20056;-67
2022/05/10 10:29:35;;;;;;;59.78;9.18;;;24.20;81.00;;;;;;5050965;28;20114;-67
2022/05/10 10:32:08;;;;;;;27.90;7.00;;;24.40;80.20;;;;;;5076221;28;20119;-67
2022/05/10 10:34:51;;;;;;;16.88;4.57;;;24.50;79.90;;;;;;5054935;28;20136;-67
2022/05/10 10:37:19;;;;;;;88.68;12.30;;;24.50;78.20;;;;;;5055656;28;20174;-67
2022/05/10 10:39:56;;;;;;;24.48;7.03;;;24.40;77.60;;;;;;5045819;28;20049;-67
2022/05/10 10:42:35;;;;;;;29.42;7.55;;;24.30;78.60;;;;;;5078232;28;20556;-67
2022/05/10 10:45:07;;;;;;;33.33;6.53;;;24.30;79.90;;;;;;5047819;28;20041;-68
2022/05/10 10:47:41;;;;;;;30.27;6.88;;;24.30;78.00;;;;;;5054060;28;20045;-67
2022/05/10 10:50:16;;;;;;;49.57;9.40;;;24.30;79.90;;;;;;5046885;28;20051;-67
2022/05/10 10:52:41;;;;;;;30.45;7.90;;;24.40;81.60;;;;;;5037738;28;20155;-68
2022/05/10 10:55:08;;;;;;;28.85;5.80;;;24.50;79.60;;;;;;5078139;28;20117;-66
2022/05/10 10:58:11;;;;;;;44.35;7.95;;;24.50;79.60;;;;;;5044543;28;20076;-66
2022/05/10 11:00:48;;;;;;;10.63;4.43;;;24.50;78.50;;;;;;5049126;28;20048;-67
2022/05/10 11:03:26;;;;;;;17.55;5.57;;;24.40;78.80;;;;;;5046426;28;20514;-66
2022/05/10 11:05:59;;;;;;;15.38;4.65;;;24.30;79.00;;;;;;5049489;28;20065;-66
2022/05/10 11:08:29;;;;;;;12.32;4.63;;;24.20;79.40;;;;;;5052282;28;20123;-66
2022/05/10 11:11:41;;;;;;;33.80;6.97;;;23.90;80.80;;;;;;5080434;28;20045;-67
2022/05/10 11:14:22;;;;;;;13.10;4.85;;;23.80;81.10;;;;;;5049675;28;20598;-67
2022/05/10 11:17:09;;;;;;;12.23;4.80;;;23.70;81.20;;;;;;5050214;28;20529;-66
2022/05/10 11:19:49;;;;;;;14.07;4.65;;;23.60;83.00;;;;;;5078142;28;20098;-67
2022/05/10 11:22:39;;;;;;;55.95;8.43;;;23.50;81.60;;;;;;5047730;28;20048;-67
2022/05/10 11:25:29;;;;;;;67.07;9.95;;;23.50;82.70;;;;;;5045962;28;20460;-67
2022/05/10 11:28:29;;;;;;;39.13;7.72;;;23.50;81.40;;;;;;5031362;28;20120;-67
2022/05/10 11:31:06;;;;;;;52.22;8.07;;;23.50;80.70;;;;;;5020752;28;20471;-67
2022/05/10 11:33:44;;;;;;;27.23;6.65;;;23.50;79.10;;;;;;5053369;28;20040;-66
2022/05/10 11:36:26;;;;;;;14.30;5.47;;;23.50;79.40;;;;;;5049406;28;20458;-66
2022/05/10 11:39:27;;;;;;;21.92;5.63;;;23.60;81.10;;;;;;5077232;28;20033;-67
2022/05/10 11:41:58;;;;;;;24.95;6.43;;;23.70;82.00;;;;;;5048678;28;20029;-67
2022/05/10 11:44:52;;;;;;;19.23;4.85;;;24.00;80.70;;;;;;5046353;28;20051;-66
2022/05/10 11:47:51;;;;;;;45.13;5.57;;;24.10;80.00;;;;;;5043498;28;20055;-66
2022/05/10 11:54:02;;;;;;;34.00;5.93;;;24.50;79.30;;;;;;5050118;28;20076;-66
2022/05/10 11:56:34;;;;;;;79.22;10.35;;;24.50;76.60;;;;;;5061554;28;20483;-67
2022/05/10 11:59:15;;;;;;;48.28;5.85;;;24.50;75.80;;;;;;5050488;28;20045;-66
2022/05/10 12:01:46;;;;;;;19.67;4.97;;;24.40;76.80;;;;;;5079433;28;20075;-66
2022/05/10 12:04:43;;;;;;;18.88;4.43;;;24.30;78.10;;;;;;5047937;28;20047;-66
2022/05/10 12:07:21;;;;;;;36.53;6.90;;;24.30;76.40;;;;;;5049950;28;20045;-67
2022/05/10 12:09:52;;;;;;;18.73;4.63;;;24.40;76.30;;;;;;5047131;28;20049;-66
2022/05/10 12:12:33;;;;;;;36.78;6.05;;;24.50;78.10;;;;;;5050721;28;20048;-67
2022/05/10 12:21:21;;;;;;;46.40;8.95;;;24.40;77.60;;;;;;5049474;28;20077;-66
2022/05/10 12:24:26;;;;;;;17.52;5.55;;;24.40;77.90;;;;;;5080979;28;20538;-66
2022/05/10 12:27:19;;;;;;;22.95;4.35;;;24.40;76.10;;;;;;5050930;28;20037;-67
2022/05/10 12:30:07;;;;;;;9.45;3.33;;;24.30;77.60;;;;;;5050940;28;20376;-67
2022/05/10 12:32:42;;;;;;;44.60;6.10;;;24.30;76.60;;;;;;5046159;28;20037;-67
2022/05/10 12:35:10;;;;;;;29.10;5.60;;;24.20;76.20;;;;;;5055122;28;20372;-66
2022/05/10 12:37:44;;;;;;;31.15;4.88;;;24.10;78.70;;;;;;5049850;28;20667;-66
2022/05/10 12:40:10;;;;;;;19.60;3.55;;;24.20;80.60;;;;;;5050905;28;20464;-66
2022/05/10 12:42:57;;;;;;;41.97;5.70;;;24.40;80.60;;;;;;5054923;28;20155;-66
2022/05/10 12:45:41;;;;;;;16.15;3.47;;;24.60;80.30;;;;;;5051125;28;20047;-66
2022/05/10 12:48:39;;;;;;;24.75;4.43;;;24.70;78.80;;;;;;5048906;28;20064;-66
2022/05/10 12:51:38;;;;;;;37.67;5.57;;;24.60;77.30;;;;;;5053282;28;20746;-66
2022/05/10 12:54:07;;;;;;;24.15;3.83;;;24.50;76.10;;;;;;5050787;28;20425;-66
2022/05/10 12:56:41;;;;;;;16.55;3.60;;;24.40;75.90;;;;;;5080951;28;20055;-66
2022/05/10 12:59:21;;;;;;;26.63;3.88;;;24.30;78.20;;;;;;5046115;28;20049;-66
2022/05/10 13:01:47;;;;;;;31.40;4.57;;;24.30;78.60;;;;;;5046581;28;20135;-66
2022/05/10 13:04:20;;;;;;;61.13;8.10;;;24.10;76.10;;;;;;5050263;28;20222;-66
2022/05/10 13:07:14;;;;;;;44.83;5.70;;;23.90;76.20;;;;;;5048872;28;20040;-67
2022/05/10 13:10:23;;;;;;;12.13;2.97;;;23.80;76.00;;;;;;5051562;28;20045;-66
2022/05/10 13:12:57;;;;;;;22.42;3.50;;;23.60;77.10;;;;;;5050894;28;20128;-66
2022/05/10 13:15:23;;;;;;;21.27;3.03;;;23.60;78.10;;;;;;5047562;28;20087;-66
2022/05/10 13:17:53;;;;;;;39.13;5.15;;;23.50;78.30;;;;;;5051417;28;20044;-66
2022/05/10 13:20:24;;;;;;;24.88;4.47;;;23.60;78.30;;;;;;5053043;28;20030;-66
2022/05/10 13:23:02;;;;;;;18.20;3.20;;;23.50;78.30;;;;;;5052525;28;20037;-66